Selected Arizona METAR Reports


Metar stations are listed by distance from this station - near to far. The 'official' reporting station for the Greater Phoenix area is KPHX - Phoenix/Sky Harbor.

KDVT - Phoenix/Deer Valley, Arizona, USA
Distance from station: NW 4mi, 7km
Updated: Wed 18 Oct 2017 0153 MST
Clear
Clear
 Wind from NNE
Wind: NNE 6 mph , 9 km/h
Temperature: 73°F , 23°C
Dew Point: 43°F , 6°C
Humidity: 33%
Barometer: 29.92 inHg , 1013.2 hPa
Clouds: Clear
Visibility: 10 miles , 16 km
2017/10/18 08:53 KDVT 180853Z AUTO 02005KT 10SM CLR 23/06 A2992 RMK AO2 SLP109 T02280061 55001 $
KSDL - Scottsdale, Arizona, USA
Distance from station: ESE 6mi, 9km
Updated: Wed 18 Oct 2017 0153 MST
Clear
Clear
 Wind from calm
Wind: Calm
Temperature: 73°F , 23°C
Dew Point: 48°F , 9°C
Humidity: 41%
Barometer: 29.94 inHg , 1013.9 hPa
Clouds: Clear
Visibility: 10 miles , 16 km
2017/10/18 08:53 KSDL 180853Z 00000KT 10SM CLR 23/09 A2994 RMK AO2 SLP112 T02330094 56003
 
KPHX - Phoenix/Sky Harbor, Arizona, USA
Distance from station: S 15mi, 24km
Updated: Wed 18 Oct 2017 0151 MST
Mostly cloudy
Mostly cloudy
 Wind from calm
Wind: Calm
Temperature: 77°F , 25°C
Dew Point: 54°F , 12°C
Humidity: 44%
Barometer: 29.90 inHg , 1012.5 hPa
Clouds: Mostly cloudy
Visibility: 10 miles , 16 km
Cloud details: Few Clouds 14000 ft
Mostly cloudy 25000 ft
2017/10/18 08:51 KPHX 180851Z 00000KT 10SM FEW140 BKN250 25/12 A2990 RMK AO2 SLP105 T02500117 58003
KGEU - Glendale, Arizona, USA
Distance from station: WSW 19mi, 30km
Updated: Tue 17 Oct 2017 1948 MST
NOT Current
Mostly cloudy
Mostly cloudy
 Wind from calm
Wind: Calm
Temperature: 88°F , 31°C
Dew Point: 46°F , 8°C
Humidity: 24%
Barometer: 29.91 inHg , 1012.9 hPa
Clouds: Mostly cloudy
Visibility: 10 miles , 16 km
Cloud details: Mostly cloudy 21000 ft
2017/10/18 02:48 KGEU 180248Z 00000KT 10SM BKN210 31/08 A2991 RMK LAST
 
KFFZ - Mesa/Falcon Field, Arizona, USA
Distance from station: SE 21mi, 33km
Updated: Tue 17 Oct 2017 1949 MST
NOT Current
Mostly cloudy
Mostly cloudy
 Wind from calm
Wind: Calm
Temperature: 86°F , 30°C
Dew Point: 48°F , 9°C
Humidity: 27%
Barometer: 29.92 inHg , 1013.2 hPa
Clouds: Mostly cloudy
Visibility: 40 miles , 64 km
Cloud details: Few Clouds 10000 ft
Mostly cloudy 18000 ft
2017/10/18 02:49 KFFZ 180249Z 00000KT 40SM FEW100 BKN180 30/09 A2992
KLUF - Luke AFB/Glendale, Arizona, USA
Distance from station: WSW 23mi, 36km
Updated: Wed 18 Oct 2017 0158 MST
Clear
Clear
 Wind from N
Wind: N 5 mph , 7 km/h
Temperature: 75°F , 24°C
Dew Point: 36°F , 2°C
Humidity: 24%
Barometer: 29.89 inHg , 1012.2 hPa
Clouds: Clear
Visibility: 10 miles , 16 km
2017/10/18 08:58 KLUF 180858Z AUTO 01004KT 10SM CLR 24/02 A2989 RMK AO2 SLP108 T02360024 57002 VISNO RWY21 $
 
KGYR - Goodyear Municipal, Arizona, USA
Distance from station: SW 26mi, 42km
Updated: Tue 17 Oct 2017 2047 MST
NOT Current
Mostly cloudy
Mostly cloudy
 Wind from calm
Wind: Calm
Temperature: 82°F , 28°C
Dew Point: 52°F , 11°C
Humidity: 35%
Barometer: 29.90 inHg , 1012.5 hPa
Clouds: Mostly cloudy
Visibility: 10 miles , 16 km
Cloud details: Mostly cloudy 25000 ft
2017/10/18 03:47 KGYR 180347Z 00000KT 10SM BKN250 28/11 A2990 RMK LAST
KIWA - Chandler/Mesa, Arizona, USA
Distance from station: SE 32mi, 51km
Updated: Wed 18 Oct 2017 0155 MST
Clear
Clear
 Wind from ESE
Wind: ESE 7 mph , 11 km/h
Temperature: 68°F , 20°C
Dew Point: 43°F , 6°C
Humidity: 40%
Barometer: 29.93 inHg , 1013.5 hPa
Clouds: Clear
Visibility: 10 miles , 16 km
2017/10/18 08:55 KIWA 180855Z AUTO 11006KT 10SM CLR 20/06 A2993 RMK AO2
 
KBXK - Buckeye, Arizona, USA
Distance from station: WSW 42mi, 68km
Updated: Wed 18 Oct 2017 0155 MST
Clear
Clear
 Wind from calm
Wind: Calm
Temperature: 73°F , 23°C
Dew Point: 30°F , -1°C
Humidity: 20%
Barometer: 29.91 inHg , 1012.9 hPa
Clouds: Clear
Visibility: 10 miles , 16 km
2017/10/18 08:55 KBXK 180855Z AUTO 00000KT 10SM CLR 23/M01 A2991 RMK AO1
KCGZ - Casa Grande, Arizona, USA
Distance from station: SSE 50mi, 81km
Updated: Sat 16 Sep 2017 2056 MST
NOT Current
Clear
Clear
 Wind from W
Wind: W 8 mph , 13 km/h
Temperature: 84°F , 29°C
Dew Point: 46°F , 8°C
Humidity: 27%
Barometer: 29.83 inHg , 1010.2 hPa
Clouds: Clear
Visibility: 10 miles , 16 km
2017/09/17 03:56 KCGZ 170356Z AUTO 27007KT 10SM CLR 29/08 A2983 RMK AO2 SLP086 T02940083 PNO $
 
KPAN - Payson, Arizona, USA
Distance from station: NE 57mi, 91km
Updated: Wed 18 Oct 2017 0155 MST

 Wind from calm
Wind: Calm
Temperature: 59°F , 15°C
Dew Point: 36°F , 2°C
Humidity: 42%
Barometer: 30.19 inHg , 1022.4 hPa
Visibility: 10 miles , 16 km
2017/10/18 08:55 KPAN 180855Z AUTO 00000KT 10SM 15/02 A3019 RMK AO2
KGBN - Gila Bend (aaf), Arizona, USA
Distance from station: SW 68mi, 109km
Updated: Thu 20 Jul 2017 0757 MST
NOT Current
Partly cloudy
Partly cloudy
 Wind from calm
Wind: Calm
Temperature: 86°F , 30°C
Heat Index: 89°F , 32°C
Dew Point: 68°F , 20°C
Humidity: 55%
Barometer: 29.97 inHg , 1014.9 hPa
Clouds: Partly cloudy
Visibility: 10 miles , 16 km
Cloud details: Few Clouds 10000 ft
Partly cloudy 15000 ft
2017/07/20 14:57 KGBN 201457Z 00000KT 10SM FEW100 SCT150 30/20 A2997 RMK A02 NO SLP
 
KPRC - Prescott, Arizona, USA
Distance from station: NNW 73mi, 118km
Updated: Wed 18 Oct 2017 0153 MST
Clear
Clear
 Wind from S
Wind: S 10 mph , 17 km/h
Temperature: 55°F , 13°C
Dew Point: 34°F , 1°C
Humidity: 44%
Barometer: 30.19 inHg , 1022.4 hPa
Clouds: Clear
Visibility: 9 miles , 14 km
2017/10/18 08:53 KPRC 180853Z AUTO 19009KT 9SM CLR 13/01 A3019 RMK AO2 SLP150 T01280006 55004
KSEZ - Sedona, Arizona, USA
Distance from station: N 84mi, 135km
Updated: Wed 18 Oct 2017 0155 MST
Clear
Clear
 Wind from NNE
Wind: NNE 14 mph , 22 km/h
Temperature: 63°F , 17°C
Dew Point: 32°F , 0°C
Humidity: 32%
Barometer: 30.17 inHg , 1021.7 hPa
Clouds: Clear
Visibility: 10 miles , 16 km
2017/10/18 08:55 KSEZ 180855Z AUTO 03012KT 10SM CLR 17/00 A3017 RMK AO2
 
KFLG - Flagstaff, Arizona, USA
Distance from station: N 105mi, 168km
Updated: Wed 18 Oct 2017 0157 MST
Clear
Clear
 Wind from calm
Wind: Calm
Temperature: 37°F , 3°C
Dew Point: 21°F , -6°C
Humidity: 52%
Barometer: 30.29 inHg , 1025.7 hPa
Clouds: Clear
Visibility: 10 miles , 16 km
2017/10/18 08:57 KFLG 180857Z AUTO 00000KT 10SM CLR 03/M06 A3029 RMK AO2 SLP183 T00331061 57007
KRYN - Tucson/Ryan Field, Arizona, USA
Distance from station: SSE 114mi, 184km
Updated: Tue 17 Oct 2017 1948 MST
NOT Current
Clear
Clear
 Wind from SSW
Wind: SSW 6 mph , 9 km/h
Temperature: 81°F , 27°C
Dew Point: 39°F , 4°C
Humidity: 23%
Barometer: 30.02 inHg , 1016.6 hPa
Clouds: Clear
Visibility: 10 miles , 16 km
2017/10/18 02:48 KRYN 180248Z 21005KT 10SM CLR 27/04 A3002 RMK LAST
 
KCMR - Williams Clark, Arizona, USA
Distance from station: N 115mi, 185km
Updated: Wed 18 Oct 2017 0155 MST
Clear
Clear
 Wind from SSE
Wind: SSE 8 mph , 13 km/h
Temperature: 41°F , 5°C
Wind Chill: 36°F , 2°C
Dew Point: 25°F , -4°C
Humidity: 53%
Barometer: 30.28 inHg , 1025.4 hPa
Clouds: Clear
Visibility: 10 miles , 16 km
2017/10/18 08:55 KCMR 180855Z AUTO 16007KT 10SM CLR 05/M04 A3028 RMK AO2
KINW - Winslow, Arizona, USA
Distance from station: NE 121mi, 194km
Updated: Wed 18 Oct 2017 0156 MST
Clear
Clear
 Wind from ESE
Wind: ESE 5 mph , 7 km/h
Temperature: 46°F , 8°C
Wind Chill: 44°F , 7°C
Dew Point: 19°F , -7°C
Humidity: 34%
Barometer: 30.18 inHg , 1022 hPa
Clouds: Clear
Visibility: 10 miles , 16 km
2017/10/18 08:56 KINW 180856Z AUTO 12004KT 10SM CLR 08/M07 A3018 RMK AO2 SLP170 T00781072 57001
 
KTUS - Tucson, Arizona, USA
Distance from station: SSE 121mi, 195km
Updated: Wed 18 Oct 2017 0153 MST
Partly cloudy
Partly cloudy
 Wind from SE
Wind: SE 3 mph , 6 km/h
Temperature: 73°F , 23°C
Dew Point: 39°F , 4°C
Humidity: 29%
Barometer: 30.03 inHg , 1016.9 hPa
Clouds: Partly cloudy
Visibility: 10 miles , 16 km
Cloud details: Partly cloudy 12000 ft
2017/10/18 08:53 KTUS 180853Z 14003KT 10SM SCT120 23/04 A3003 RMK AO2 SLP120 T02280044 58003
KDMA - Davis AFB/Tucson, Arizona, USA
Distance from station: SE 122mi, 196km
Updated: Wed 18 Oct 2017 0155 MST
Partly cloudy
Partly cloudy
 Wind from varies
Wind: varies 2 mph , 4 km/h
Temperature: 75°F , 24°C
Dew Point: 37°F , 3°C
Humidity: 25%
Barometer: 30.01 inHg , 1016.3 hPa
Clouds: Partly cloudy
Visibility: 10 miles , 16 km
Cloud details: Few Clouds 10000 ft
Partly cloudy 25000 ft
2017/10/18 08:55 KDMA 180855Z VRB02KT 10SM FEW100 SCT250 24/03 A3001 RMK AO2A SL110 WND DATA ESTMD ALSTG/SLP ESTMD $
 
KSOW - Show Low Municipal, Arizona, USA
Distance from station: ENE 123mi, 198km
Updated: Wed 18 Oct 2017 0155 MST
Clear
Clear
 Wind from S
Wind: S 5 mph , 7 km/h
Temperature: 52°F , 11°C
Dew Point: 36°F , 2°C
Humidity: 54%
Barometer: 30.27 inHg , 1025.1 hPa
Clouds: Clear
Visibility: 10 miles , 16 km
2017/10/18 08:55 KSOW 180855Z AUTO 17004KT 10SM CLR 11/02 A3027 RMK AO2
KSAD - Safford, Arizona, USA
Distance from station: ESE 148mi, 238km
Updated: Wed 18 Oct 2017 0151 MST
Mostly cloudy
Mostly cloudy
 Wind from N
Wind: N 3 mph , 6 km/h
Temperature: 64°F , 18°C
Dew Point: 39°F , 4°C
Humidity: 40%
Barometer: 30.04 inHg , 1017.3 hPa
Clouds: Mostly cloudy
Visibility: 10 miles , 16 km
Cloud details: Mostly cloudy 10000 ft
2017/10/18 08:51 KSAD 180851Z AUTO 35003KT 10SM BKN100 18/04 A3004 RMK AO2 SLP124 T01830039 57003